Time;durP1;ratioP1;P1;durP2;ratioP2;P2;SDS_P1;SDS_P2;PMS_P1;PMS_P2;Temp;Humidity;BMP_temperature;BMP_pressure;BME280_temperature;BME280_humidity;BME280_pressure;Samples;Min_cycle;Max_cycle;Signal;HPM_P1;HPM_P2
2022/07/01 00:00:49;;;;;;;2.70;0.30;;;17.20;99.90;;;;;;1962139;72;22180;-78
2022/07/01 00:03:48;;;;;;;0.35;0.30;;;17.20;99.90;;;;;;1918235;73;21565;-79
2022/07/01 00:06:33;;;;;;;1.05;0.30;;;17.30;99.90;;;;;;1931170;73;21624;-79
2022/07/01 00:09:24;;;;;;;1.35;0.30;;;17.30;99.90;;;;;;1919262;73;21102;-79
2022/07/01 00:12:15;;;;;;;0.47;0.30;;;17.30;99.90;;;;;;1926276;73;21083;-79
2022/07/01 00:15:09;;;;;;;0.37;0.23;;;17.40;99.90;;;;;;1922063;73;21059;-79
2022/07/01 00:18:00;;;;;;;1.20;0.30;;;17.30;99.90;;;;;;1917517;73;21173;-79
2022/07/01 00:20:51;;;;;;;0.75;0.30;;;17.30;99.90;;;;;;1925917;74;21132;-79
2022/07/01 00:23:42;;;;;;;1.72;0.50;;;17.30;99.90;;;;;;1926672;73;21170;-79
2022/07/01 00:26:33;;;;;;;0.53;0.30;;;17.50;99.90;;;;;;1928836;73;21576;-79
2022/07/01 00:29:25;;;;;;;0.55;0.40;;;17.60;99.90;;;;;;1931730;73;21148;-79
2022/07/01 00:32:16;;;;;;;0.40;0.40;;;17.70;99.90;;;;;;1917520;74;21066;-79
2022/07/01 00:35:09;;;;;;;0.50;0.40;;;17.70;99.90;;;;;;1938449;73;21217;-79
2022/07/01 00:38:00;;;;;;;0.78;0.40;;;17.70;99.90;;;;;;1917744;75;21062;-78
2022/07/01 00:40:54;;;;;;;0.80;0.30;;;17.70;99.90;;;;;;1929681;73;21117;-79
2022/07/01 00:43:45;;;;;;;0.33;0.30;;;17.80;99.90;;;;;;1931754;73;21042;-79
2022/07/01 00:46:37;;;;;;;0.72;0.42;;;17.80;99.90;;;;;;1928774;73;21063;-79
2022/07/01 00:49:29;;;;;;;0.47;0.47;;;17.80;99.90;;;;;;1936108;73;21054;-78
2022/07/01 00:52:21;;;;;;;0.40;0.40;;;17.80;99.90;;;;;;1920691;73;21134;-78
2022/07/01 00:55:15;;;;;;;0.93;0.40;;;17.80;99.90;;;;;;1921361;73;21588;-78
2022/07/01 01:00:46;;;;;;;2.62;0.30;;;18.00;99.90;;;;;;1921098;72;22662;-79
2022/07/01 01:06:17;;;;;;;2.05;0.40;;;18.10;99.90;;;;;;1928586;72;22711;-78
2022/07/01 01:09:08;;;;;;;0.30;0.20;;;18.10;99.90;;;;;;1898478;75;21216;-80
2022/07/01 01:11:59;;;;;;;0.50;0.20;;;18.00;99.90;;;;;;1903455;75;21167;-80
2022/07/01 01:14:52;;;;;;;1.07;0.35;;;18.00;99.90;;;;;;1895691;75;21136;-80
2022/07/01 01:17:43;;;;;;;0.85;0.20;;;18.00;99.90;;;;;;1887639;75;21183;-80
2022/07/01 01:20:37;;;;;;;0.40;0.30;;;17.90;99.90;;;;;;1888840;75;21129;-80
2022/07/01 01:23:28;;;;;;;0.20;0.20;;;17.80;99.90;;;;;;1887700;74;21631;-80
2022/07/01 01:29:00;;;;;;;1.55;0.20;;;17.60;99.90;;;;;;1952525;72;22644;-79
2022/07/01 01:31:51;;;;;;;0.80;0.30;;;17.60;99.90;;;;;;1933748;73;21102;-81
2022/07/01 01:34:42;;;;;;;0.55;0.20;;;17.50;99.90;;;;;;1928502;73;21120;-79
2022/07/01 01:37:33;;;;;;;0.90;0.20;;;17.30;99.90;;;;;;1917628;75;21553;-79
2022/07/01 01:40:24;;;;;;;0.85;0.20;;;17.20;99.90;;;;;;1938022;73;21068;-78
2022/07/01 01:45:53;;;;;;;1.32;0.55;;;17.00;99.90;;;;;;1949203;72;22162;-79
2022/07/01 01:51:23;;;;;;;0.25;0.25;;;16.90;99.90;;;;;;1925068;72;22150;-79
2022/07/01 01:56:54;;;;;;;3.72;1.00;;;17.00;99.90;;;;;;1952305;72;22238;-78
2022/07/01 01:59:45;;;;;;;0.82;0.30;;;17.00;99.90;;;;;;1925212;73;21149;-78
2022/07/01 02:02:36;;;;;;;0.42;0.30;;;17.10;99.90;;;;;;1923951;73;21184;-78
2022/07/01 02:05:27;;;;;;;1.00;0.20;;;17.00;99.90;;;;;;1917678;75;21058;-78
2022/07/01 02:10:58;;;;;;;1.10;0.20;;;17.20;99.90;;;;;;1938326;72;22125;-79
2022/07/01 02:16:28;;;;;;;2.08;0.20;;;16.90;99.90;;;;;;1964687;72;22279;-79
2022/07/01 02:19:19;;;;;;;1.20;0.20;;;16.90;99.90;;;;;;1918787;73;21587;-79
2022/07/01 02:22:10;;;;;;;0.80;0.35;;;17.00;99.90;;;;;;1917805;73;21171;-79
2022/07/01 02:25:01;;;;;;;0.30;0.20;;;16.90;99.90;;;;;;1920500;73;21228;-79
2022/07/01 02:27:52;;;;;;;0.42;0.20;;;16.90;99.90;;;;;;1917648;75;21063;-79
2022/07/01 02:30:43;;;;;;;0.20;0.20;;;16.90;99.90;;;;;;1922149;74;21055;-79
2022/07/01 02:33:35;;;;;;;1.27;0.25;;;17.00;99.90;;;;;;1940051;73;21129;-80
2022/07/01 02:36:26;;;;;;;0.20;0.20;;;17.00;99.90;;;;;;1927353;73;21110;-80
2022/07/01 02:39:17;;;;;;;1.45;0.30;;;17.10;99.90;;;;;;1929782;73;21526;-79
2022/07/01 02:42:25;;;;;;;0.78;0.30;;;17.10;99.90;;;;;;1931547;73;21094;-79
2022/07/01 02:45:16;;;;;;;0.55;0.30;;;17.10;99.90;;;;;;1931034;73;21102;-79
2022/07/01 02:48:08;;;;;;;0.50;0.30;;;17.10;99.90;;;;;;1917370;75;21159;-79
2022/07/01 02:50:59;;;;;;;0.40;0.20;;;17.10;99.90;;;;;;1928679;73;21093;-79
2022/07/01 02:53:50;;;;;;;1.10;0.40;;;17.10;99.90;;;;;;1930428;73;21515;-79
2022/07/01 02:56:41;;;;;;;0.30;0.30;;;17.10;99.90;;;;;;1917848;73;21192;-79
2022/07/01 02:59:32;;;;;;;0.20;0.20;;;17.10;99.90;;;;;;1924110;73;21176;-79
2022/07/01 03:02:24;;;;;;;0.30;0.30;;;17.20;99.90;;;;;;1922425;73;21063;-79
2022/07/01 03:05:15;;;;;;;0.55;0.40;;;17.20;99.90;;;;;;1915189;73;21058;-79
2022/07/01 03:08:07;;;;;;;0.75;0.40;;;17.30;99.90;;;;;;1917815;75;21145;-79
2022/07/01 03:10:58;;;;;;;0.80;0.30;;;17.30;99.90;;;;;;1931156;73;21054;-80
2022/07/01 03:13:50;;;;;;;0.30;0.30;;;17.40;99.90;;;;;;1920896;73;21169;-79
2022/07/01 03:16:41;;;;;;;0.65;0.30;;;17.40;99.90;;;;;;1918873;73;21671;-79
2022/07/01 03:22:11;;;;;;;0.30;0.30;;;17.40;99.90;;;;;;1953416;72;22268;-79
2022/07/01 03:25:03;;;;;;;0.35;0.30;;;17.40;99.90;;;;;;1914076;74;21051;-79
2022/07/01 03:27:54;;;;;;;0.47;0.20;;;17.50;99.90;;;;;;1884724;75;21059;-80
2022/07/01 03:30:46;;;;;;;2.92;0.35;;;17.50;99.90;;;;;;1905927;75;21535;-80
2022/07/01 03:33:37;;;;;;;0.30;0.30;;;17.40;99.90;;;;;;1851490;76;21347;-79
2022/07/01 03:36:28;;;;;;;3.12;0.40;;;17.30;99.90;;;;;;1904938;75;21113;-80
2022/07/01 03:41:58;;;;;;;0.95;0.30;;;17.20;99.90;;;;;;1941064;72;22286;-79
2022/07/01 03:44:49;;;;;;;1.40;0.57;;;17.10;99.90;;;;;;1894243;74;21543;-79
2022/07/01 03:47:46;;;;;;;0.30;0.30;;;17.20;99.90;;;;;;1906515;75;21087;-79
2022/07/01 03:50:37;;;;;;;0.45;0.40;;;17.20;99.90;;;;;;1884730;75;21165;-79
2022/07/01 03:56:38;;;;;;;0.70;0.30;;;17.10;99.90;;;;;;1905179;75;21070;-79
2022/07/01 03:59:31;;;;;;;0.98;0.40;;;17.20;99.90;;;;;;1894725;75;21050;-79
2022/07/01 04:02:22;;;;;;;3.27;0.65;;;17.30;99.90;;;;;;1888471;75;21054;-79
2022/07/01 04:05:13;;;;;;;1.37;0.50;;;17.40;99.90;;;;;;1917413;75;21494;-79
2022/07/01 04:08:05;;;;;;;1.67;0.50;;;17.40;99.90;;;;;;1887879;75;21199;-79
2022/07/01 04:10:57;;;;;;;2.08;0.60;;;17.40;99.90;;;;;;1888900;75;21048;-79
2022/07/01 04:13:50;;;;;;;0.65;0.30;;;17.40;99.90;;;;;;1891612;75;21447;-79
2022/07/01 04:16:41;;;;;;;2.40;0.40;;;17.40;99.90;;;;;;1911889;75;21212;-79
2022/07/01 04:19:34;;;;;;;1.70;0.40;;;17.40;99.90;;;;;;1891202;75;21140;-79
2022/07/01 04:22:35;;;;;;;1.52;0.60;;;17.40;99.90;;;;;;1913074;75;21089;-79
2022/07/01 04:25:29;;;;;;;1.42;0.53;;;17.40;99.90;;;;;;1911898;75;21051;-79
2022/07/01 04:28:19;;;;;;;1.00;0.40;;;17.30;99.90;;;;;;1915554;75;21108;-79
2022/07/01 04:31:10;;;;;;;0.90;0.40;;;17.30;99.90;;;;;;1885377;75;21144;-79
2022/07/01 04:34:01;;;;;;;1.72;0.57;;;17.30;99.90;;;;;;1887077;75;21083;-79
2022/07/01 04:36:53;;;;;;;1.25;0.40;;;17.20;99.90;;;;;;1892195;75;21636;-79
2022/07/01 04:39:44;;;;;;;2.47;0.62;;;17.20;99.90;;;;;;1906487;75;21121;-80
2022/07/01 04:42:35;;;;;;;1.77;0.60;;;17.10;99.90;;;;;;1884928;75;21110;-79
2022/07/01 04:45:26;;;;;;;1.40;0.65;;;17.00;99.90;;;;;;1902404;75;21133;-79
2022/07/01 04:50:57;;;;;;;1.42;0.60;;;17.00;99.90;;;;;;1919052;72;22177;-79
2022/07/01 04:53:50;;;;;;;2.00;0.70;;;17.10;99.90;;;;;;1893247;75;21220;-79
2022/07/01 04:56:41;;;;;;;1.42;0.60;;;17.00;99.90;;;;;;1886160;75;21062;-79
2022/07/01 04:59:33;;;;;;;0.98;0.50;;;17.00;99.90;;;;;;1895126;75;21088;-79
2022/07/01 05:02:24;;;;;;;1.12;0.47;;;16.90;99.90;;;;;;1906608;75;21054;-79
2022/07/01 05:05:15;;;;;;;0.50;0.40;;;16.80;99.90;;;;;;1867916;77;21054;-80
2022/07/01 05:08:07;;;;;;;0.95;0.53;;;16.70;99.90;;;;;;1887594;75;21088;-79
2022/07/01 05:10:58;;;;;;;1.17;0.55;;;16.50;99.90;;;;;;1897561;75;21146;-79
2022/07/01 05:16:28;;;;;;;2.77;0.70;;;16.30;99.90;;;;;;1926246;72;22271;-79
2022/07/01 05:22:28;;;;;;;2.37;0.70;;;16.30;99.90;;;;;;1928853;73;21513;-79
2022/07/01 05:25:19;;;;;;;0.65;0.50;;;16.20;99.90;;;;;;1944738;73;21151;-79
2022/07/01 05:28:10;;;;;;;0.40;0.40;;;16.10;99.90;;;;;;1930826;73;21113;-78
2022/07/01 05:31:02;;;;;;;0.62;0.30;;;16.00;99.90;;;;;;1917475;74;21048;-79
2022/07/01 05:33:54;;;;;;;2.75;0.40;;;15.90;99.90;;;;;;1917402;73;21039;-79
2022/07/01 05:36:47;;;;;;;0.30;0.30;;;15.80;99.90;;;;;;1889686;75;21096;-79
2022/07/01 05:39:38;;;;;;;1.45;0.30;;;15.70;99.90;;;;;;1877848;75;21079;-79
2022/07/01 05:42:30;;;;;;;1.30;0.30;;;15.70;99.90;;;;;;1928155;73;21066;-79
2022/07/01 05:45:22;;;;;;;1.12;0.37;;;15.70;99.90;;;;;;1934452;73;21114;-79
2022/07/01 05:50:52;;;;;;;0.60;0.40;;;15.60;99.90;;;;;;1919440;72;22216;-79
2022/07/01 05:53:44;;;;;;;0.47;0.30;;;15.50;99.90;;;;;;1910775;75;21122;-79
2022/07/01 05:56:35;;;;;;;0.30;0.30;;;15.40;99.90;;;;;;1896665;75;21183;-79
2022/07/01 05:59:27;;;;;;;1.85;0.30;;;15.40;99.90;;;;;;1913813;73;21140;-79
2022/07/01 06:02:18;;;;;;;0.40;0.30;;;15.40;99.90;;;;;;1899068;73;21062;-79
2022/07/01 06:05:12;;;;;;;0.20;0.20;;;15.50;99.90;;;;;;1905562;75;21148;-80
2022/07/01 06:08:04;;;;;;;0.47;0.20;;;15.60;99.90;;;;;;1886685;75;21101;-80
2022/07/01 06:13:36;;;;;;;2.15;0.20;;;15.70;99.90;;;;;;1935599;72;22242;-79
2022/07/01 06:16:29;;;;;;;0.20;0.10;;;15.70;99.90;;;;;;1900536;75;21059;-80
2022/07/01 06:19:22;;;;;;;1.95;0.50;;;15.70;99.90;;;;;;1887691;75;21561;-79
2022/07/01 06:22:16;;;;;;;0.42;0.30;;;15.70;99.90;;;;;;1906028;75;21086;-80
2022/07/01 06:25:08;;;;;;;2.20;0.20;;;15.70;99.90;;;;;;1888087;75;21078;-79
2022/07/01 06:27:59;;;;;;;0.57;0.10;;;15.80;99.90;;;;;;1903805;75;21059;-79
2022/07/01 06:30:54;;;;;;;0.57;0.20;;;15.80;99.90;;;;;;1914196;73;21098;-79
2022/07/01 06:36:25;;;;;;;1.67;0.30;;;15.70;99.90;;;;;;1949293;72;22609;-79
2022/07/01 06:41:56;;;;;;;0.28;0.10;;;15.70;99.90;;;;;;1933651;72;22334;-80
2022/07/01 06:44:48;;;;;;;0.30;0.15;;;15.70;99.90;;;;;;1887383;75;21346;-80
2022/07/01 06:47:40;;;;;;;1.60;0.20;;;15.70;99.90;;;;;;1873734;75;21075;-79
2022/07/01 06:50:31;;;;;;;0.65;0.15;;;15.70;99.90;;;;;;1888638;75;21102;-78
2022/07/01 06:56:01;;;;;;;1.40;0.10;;;15.70;99.90;;;;;;1947637;72;22158;-80
2022/07/01 06:58:52;;;;;;;1.22;0.20;;;15.80;99.90;;;;;;1917544;75;21059;-80
2022/07/01 07:01:43;;;;;;;0.10;0.10;;;15.70;99.90;;;;;;1917267;73;21056;-80
2022/07/01 07:04:36;;;;;;;0.82;0.10;;;15.80;99.90;;;;;;1922080;73;21116;-80
2022/07/01 07:07:29;;;;;;;0.28;0.10;;;15.80;99.90;;;;;;1923774;73;21507;-81
2022/07/01 07:13:03;;;;;;;0.17;0.15;;;15.70;99.90;;;;;;1961879;72;22179;-80
2022/07/01 07:15:54;;;;;;;0.20;0.20;;;15.70;99.90;;;;;;1920384;73;21112;-80
2022/07/01 07:21:24;;;;;;;0.10;0.10;;;15.80;99.90;;;;;;1946006;72;22145;-80
2022/07/01 07:26:55;;;;;;;0.62;0.20;;;15.90;99.90;;;;;;1938635;72;22133;-78
2022/07/01 07:29:46;;;;;;;1.27;0.40;;;15.80;99.90;;;;;;1884533;75;21067;-81
2022/07/01 07:32:37;;;;;;;0.20;0.20;;;15.80;99.90;;;;;;1890361;75;21106;-80
2022/07/01 07:35:28;;;;;;;0.35;0.30;;;15.90;99.90;;;;;;1906956;75;21108;-79
2022/07/01 07:38:20;;;;;;;0.33;0.20;;;15.90;99.90;;;;;;1906813;75;21556;-76
2022/07/01 07:41:11;;;;;;;0.78;0.30;;;16.00;99.90;;;;;;1885119;75;21066;-76
2022/07/01 07:46:46;;;;;;;0.30;0.30;;;16.00;99.90;;;;;;1946813;72;22200;-81
2022/07/01 07:52:18;;;;;;;0.33;0.30;;;16.20;99.90;;;;;;1945181;72;22154;-81
2022/07/01 07:55:11;;;;;;;0.30;0.30;;;16.30;99.90;;;;;;1904158;75;21160;-80
2022/07/01 07:58:02;;;;;;;0.50;0.30;;;16.30;99.90;;;;;;1895400;75;21053;-80
2022/07/01 08:00:54;;;;;;;0.55;0.37;;;16.30;99.90;;;;;;1892469;74;21145;-80
2022/07/01 08:06:24;;;;;;;0.30;0.30;;;16.40;99.90;;;;;;1949661;72;22223;-80
2022/07/01 08:11:55;;;;;;;0.98;0.25;;;16.60;99.90;;;;;;1932925;72;22201;-81
2022/07/01 08:14:46;;;;;;;0.68;0.45;;;16.70;99.90;;;;;;1899712;75;21155;-80
2022/07/01 08:17:38;;;;;;;1.05;0.40;;;16.70;99.90;;;;;;1887069;73;21055;-81
2022/07/01 08:23:13;;;;;;;0.70;0.50;;;17.00;99.90;;;;;;1940731;72;22226;-82
2022/07/01 08:26:05;;;;;;;0.60;0.47;;;17.10;99.90;;;;;;1893263;75;21079;-81
2022/07/01 08:28:56;;;;;;;1.25;0.50;;;17.00;99.90;;;;;;1887240;75;21149;-81
2022/07/01 08:31:48;;;;;;;0.78;0.40;;;17.10;99.90;;;;;;1902875;73;21126;-80
2022/07/01 08:34:41;;;;;;;1.02;0.50;;;17.20;99.90;;;;;;1889219;75;21131;-81
2022/07/01 08:37:33;;;;;;;0.95;0.50;;;17.40;99.90;;;;;;1905532;75;21102;-81
2022/07/01 08:43:11;;;;;;;1.20;0.60;;;17.40;99.90;;;;;;1946862;72;22354;-81
2022/07/01 08:46:04;;;;;;;0.93;0.60;;;17.60;99.90;;;;;;1917426;75;21058;-80
2022/07/01 08:51:35;;;;;;;1.00;0.80;;;17.70;99.90;;;;;;1941887;72;22274;-81
2022/07/01 08:57:07;;;;;;;1.15;0.90;;;17.70;99.90;;;;;;1947956;72;22099;-81
2022/07/01 09:00:07;;;;;;;1.55;0.88;;;17.70;99.90;;;;;;1924175;73;21064;-82
2022/07/01 09:03:01;;;;;;;0.62;0.62;;;17.90;99.90;;;;;;1920312;73;21097;-81
2022/07/01 09:05:55;;;;;;;1.32;0.80;;;18.00;99.90;;;;;;1917594;73;21113;-81
2022/07/01 09:11:28;;;;;;;1.82;1.00;;;18.10;99.90;;;;;;1944884;72;22654;-80
2022/07/01 09:16:58;;;;;;;1.85;0.90;;;18.10;99.90;;;;;;1940289;72;22278;-80
2022/07/01 09:19:51;;;;;;;2.15;0.90;;;18.10;99.90;;;;;;1908343;74;21070;-81
2022/07/01 09:22:57;;;;;;;0.95;0.85;;;18.00;99.90;;;;;;1892447;75;21176;-81
2022/07/01 09:25:51;;;;;;;1.25;0.80;;;18.20;99.90;;;;;;1884739;75;21647;-81
2022/07/01 09:31:22;;;;;;;1.00;0.90;;;18.30;99.90;;;;;;1940566;72;22239;-81
2022/07/01 09:36:57;;;;;;;1.20;0.82;;;18.40;99.90;;;;;;1972227;72;22299;-81
2022/07/01 09:39:50;;;;;;;2.77;0.93;;;18.60;99.90;;;;;;1938471;73;21184;-81
2022/07/01 09:42:46;;;;;;;0.98;0.80;;;18.50;99.90;;;;;;1936848;73;21188;-81
2022/07/01 09:45:38;;;;;;;0.70;0.70;;;18.70;99.90;;;;;;1947208;73;21031;-82
2022/07/01 09:48:43;;;;;;;0.60;0.60;;;18.80;99.90;;;;;;1927521;73;21068;-82
2022/07/01 09:51:35;;;;;;;1.57;0.80;;;18.60;99.90;;;;;;1917431;75;21593;-81
2022/07/01 09:54:26;;;;;;;1.62;0.90;;;18.80;99.90;;;;;;1917579;75;21059;-81
2022/07/01 09:57:19;;;;;;;0.75;0.70;;;18.90;99.90;;;;;;1938809;73;21158;-81
2022/07/01 10:00:12;;;;;;;1.45;0.80;;;18.80;99.90;;;;;;1935500;73;21113;-82
2022/07/01 10:03:03;;;;;;;1.67;0.90;;;18.80;99.90;;;;;;1917555;73;21094;-81
2022/07/01 10:05:57;;;;;;;1.22;0.70;;;19.00;99.90;;;;;;1917642;75;21107;-82
2022/07/01 10:08:59;;;;;;;0.90;0.70;;;19.10;99.90;;;;;;1920309;73;21102;-82
2022/07/01 10:12:22;;;;;;;1.98;0.70;;;19.30;99.90;;;;;;1928952;73;21572;-82
2022/07/01 10:15:17;;;;;;;0.80;0.80;;;19.20;99.90;;;;;;1919153;73;21186;-82
2022/07/01 10:18:09;;;;;;;1.05;0.80;;;19.30;99.90;;;;;;1931396;73;21087;-82
2022/07/01 10:21:03;;;;;;;1.65;0.80;;;19.40;99.90;;;;;;1932678;73;21167;-82
2022/07/01 10:23:54;;;;;;;1.05;0.60;;;19.50;99.90;;;;;;1918901;73;21089;-81
2022/07/01 10:26:46;;;;;;;2.22;0.68;;;19.60;99.90;;;;;;1917661;75;21190;-82
2022/07/01 10:29:39;;;;;;;1.02;0.90;;;19.60;99.90;;;;;;1917705;75;21125;-81
2022/07/01 10:32:30;;;;;;;1.05;0.70;;;19.60;99.90;;;;;;1917359;75;21141;-81
2022/07/01 10:35:23;;;;;;;0.72;0.70;;;19.70;99.90;;;;;;1917735;74;21064;-81
2022/07/01 10:38:14;;;;;;;1.95;0.75;;;19.90;99.90;;;;;;1910889;74;21081;-81
2022/07/01 10:41:10;;;;;;;1.05;0.80;;;20.00;99.90;;;;;;1911518;74;21078;-83
2022/07/01 10:44:04;;;;;;;0.72;0.72;;;19.90;99.90;;;;;;1931092;74;21116;-82
2022/07/01 10:46:59;;;;;;;0.98;0.70;;;19.80;99.90;;;;;;1912748;75;21060;-82
2022/07/01 10:49:56;;;;;;;0.60;0.60;;;19.90;99.90;;;;;;1918647;74;21060;-81
2022/07/01 10:53:04;;;;;;;1.62;0.70;;;20.10;99.90;;;;;;1924618;74;21653;-82
2022/07/01 10:58:40;;;;;;;1.17;0.85;;;20.00;99.90;;;;;;1955659;72;22131;-83
2022/07/01 11:01:33;;;;;;;1.60;0.60;;;20.10;99.90;;;;;;1917559;75;21109;-82
2022/07/01 11:04:24;;;;;;;0.57;0.47;;;20.20;99.90;;;;;;1917475;73;21066;-82
2022/07/01 11:07:15;;;;;;;0.78;0.60;;;20.20;99.90;;;;;;1940013;73;21090;-81
2022/07/01 11:10:12;;;;;;;1.57;0.50;;;20.50;99.90;;;;;;1917283;75;21207;-82
2022/07/01 11:13:04;;;;;;;0.82;0.50;;;20.60;99.90;;;;;;1917604;75;21062;-82
2022/07/01 11:15:56;;;;;;;0.65;0.50;;;20.70;99.90;;;;;;1940468;73;21136;-82
2022/07/01 11:18:48;;;;;;;2.42;0.40;;;20.70;99.90;;;;;;1917638;75;21065;-82
2022/07/01 11:21:39;;;;;;;0.57;0.40;;;20.80;99.90;;;;;;1940099;73;21220;-82
2022/07/01 11:24:30;;;;;;;0.53;0.40;;;21.00;99.90;;;;;;1917725;75;21071;-82
2022/07/01 11:27:22;;;;;;;0.65;0.30;;;21.10;99.90;;;;;;1929851;73;21141;-81
2022/07/01 11:30:16;;;;;;;0.40;0.40;;;21.10;99.90;;;;;;1921802;73;21052;-82
2022/07/01 11:33:11;;;;;;;0.30;0.30;;;21.30;99.90;;;;;;1920391;73;21126;-81
2022/07/01 11:39:23;;;;;;;0.40;0.40;;;21.20;99.90;;;;;;1917727;75;21094;-82
2022/07/01 11:42:14;;;;;;;0.50;0.40;;;21.10;99.90;;;;;;1933735;73;21121;-82
2022/07/01 11:45:08;;;;;;;0.35;0.35;;;21.40;99.90;;;;;;1917981;73;21509;-82
2022/07/01 11:47:59;;;;;;;0.57;0.30;;;21.50;99.90;;;;;;1940302;73;21147;-82
2022/07/01 11:50:50;;;;;;;0.78;0.50;;;21.60;99.90;;;;;;1940065;73;21552;-82
2022/07/01 11:53:44;;;;;;;0.85;0.50;;;21.90;99.90;;;;;;1934706;73;21109;-81
2022/07/01 11:56:41;;;;;;;0.70;0.70;;;22.10;99.90;;;;;;1930632;73;21124;-82
2022/07/01 11:59:33;;;;;;;1.07;0.60;;;22.50;99.90;;;;;;1928798;73;21074;-82
2022/07/01 12:02:26;;;;;;;0.78;0.70;;;22.90;99.90;;;;;;1924950;73;21055;-82
2022/07/01 12:05:18;;;;;;;0.75;0.60;;;23.30;99.90;;;;;;1939310;73;21050;-82
2022/07/01 12:08:09;;;;;;;1.67;1.05;;;23.50;99.90;;;;;;1934897;73;21066;-82
2022/07/01 12:11:02;;;;;;;0.55;0.40;;;23.60;99.90;;;;;;1916921;75;21132;-82
2022/07/01 12:13:56;;;;;;;1.60;0.75;;;23.80;99.90;;;;;;1916318;75;21043;-83
2022/07/01 12:16:47;;;;;;;0.40;0.40;;;23.90;99.90;;;;;;1939152;73;21257;-82
2022/07/01 12:19:41;;;;;;;1.32;0.68;;;23.40;99.90;;;;;;1935728;73;21172;-82
2022/07/01 12:22:34;;;;;;;0.72;0.62;;;23.30;99.90;;;;;;1917241;75;21052;-82
2022/07/01 12:25:25;;;;;;;1.07;0.40;;;23.40;99.90;;;;;;1916926;75;21112;-82
2022/07/01 12:28:28;;;;;;;0.30;0.30;;;23.50;99.90;;;;;;1917246;75;21074;-82
2022/07/01 12:31:20;;;;;;;0.85;0.40;;;23.50;99.90;;;;;;1917025;75;21083;-83
2022/07/01 12:34:13;;;;;;;4.05;0.47;;;23.20;99.90;;;;;;1916853;75;21167;-82
2022/07/01 12:37:06;;;;;;;0.30;0.30;;;23.10;99.90;;;;;;1917023;75;21122;-82
2022/07/01 12:40:00;;;;;;;0.95;0.40;;;23.20;99.90;;;;;;1916671;75;21673;-82
2022/07/01 12:42:52;;;;;;;0.60;0.30;;;23.30;99.90;;;;;;1916969;75;21132;-82
2022/07/01 12:45:43;;;;;;;0.40;0.20;;;23.20;99.90;;;;;;1916980;75;21329;-82
2022/07/01 12:48:55;;;;;;;1.32;0.40;;;23.10;99.90;;;;;;1931488;73;21127;-82
2022/07/01 12:51:46;;;;;;;10.03;0.60;;;22.90;99.90;;;;;;1916848;75;21052;-82
2022/07/01 12:57:30;;;;;;;0.33;0.20;;;22.70;99.90;;;;;;1945432;72;22119;-81
2022/07/01 13:00:27;;;;;;;1.12;0.40;;;22.80;99.90;;;;;;1892536;75;21059;-83
2022/07/01 13:03:22;;;;;;;1.27;0.45;;;22.90;99.90;;;;;;1873197;75;21092;-81
2022/07/01 13:06:16;;;;;;;0.98;0.40;;;22.70;99.90;;;;;;1884112;75;21060;-81
2022/07/01 13:09:07;;;;;;;0.45;0.40;;;22.50;99.90;;;;;;1892642;75;21096;-81
2022/07/01 13:11:59;;;;;;;1.65;0.60;;;22.60;99.90;;;;;;1838531;77;21094;-82
2022/07/01 13:14:51;;;;;;;0.60;0.30;;;22.70;99.90;;;;;;1887632;75;21125;-81
2022/07/01 13:20:25;;;;;;;0.75;0.30;;;22.70;99.90;;;;;;1947611;72;22332;-81
2022/07/01 13:23:17;;;;;;;1.98;0.30;;;22.80;99.90;;;;;;1940548;73;21109;-81
2022/07/01 13:26:09;;;;;;;2.22;0.30;;;23.00;99.90;;;;;;1933467;73;21192;-84
2022/07/01 13:31:48;;;;;;;1.12;1.05;;;23.00;99.90;;;;;;1945871;72;22114;-81
2022/07/01 13:34:40;;;;;;;0.30;0.30;;;23.10;99.90;;;;;;1917576;75;21096;-82
2022/07/01 13:37:35;;;;;;;0.78;0.37;;;22.90;99.90;;;;;;1917742;75;21134;-82
2022/07/01 13:40:27;;;;;;;0.55;0.20;;;22.90;99.90;;;;;;1931344;73;21110;-82
2022/07/01 13:43:19;;;;;;;0.60;0.40;;;23.10;99.90;;;;;;1928479;73;21082;-82
2022/07/01 13:46:11;;;;;;;0.40;0.30;;;23.50;99.90;;;;;;1925440;73;21076;-82
2022/07/01 13:49:03;;;;;;;0.95;0.20;;;23.50;99.90;;;;;;1917413;75;21055;-81
2022/07/01 13:51:55;;;;;;;0.47;0.30;;;23.60;99.90;;;;;;1917663;75;21519;-82
2022/07/01 13:54:46;;;;;;;0.47;0.20;;;23.90;99.90;;;;;;1917510;75;21091;-82
2022/07/01 13:57:38;;;;;;;4.00;0.30;;;24.20;99.90;;;;;;1921858;73;21654;-83
2022/07/01 14:00:32;;;;;;;1.42;0.30;;;24.50;99.90;;;;;;1930224;73;21054;-83
2022/07/01 14:03:35;;;;;;;0.57;0.30;;;24.80;99.90;;;;;;1921550;73;21154;-83
2022/07/01 14:09:07;;;;;;;0.53;0.40;;;24.50;99.90;;;;;;1932115;72;22095;-82
2022/07/01 14:11:58;;;;;;;0.40;0.40;;;24.50;99.90;;;;;;1895501;75;21099;-82
2022/07/01 14:14:53;;;;;;;0.50;0.30;;;24.40;99.90;;;;;;1886805;75;21131;-82
2022/07/01 14:17:46;;;;;;;1.30;0.33;;;24.30;99.90;;;;;;1872406;76;21578;-83
2022/07/01 14:20:37;;;;;;;0.93;0.40;;;24.30;99.90;;;;;;1893944;75;21169;-82
2022/07/01 14:23:30;;;;;;;0.62;0.40;;;24.80;99.90;;;;;;1894100;75;21099;-82
2022/07/01 14:29:05;;;;;;;1.37;0.37;;;25.20;99.90;;;;;;1952826;72;22227;-82
2022/07/01 14:31:56;;;;;;;1.15;0.30;;;24.80;99.90;;;;;;1939098;73;21090;-81
2022/07/01 14:34:48;;;;;;;0.90;0.20;;;24.40;99.90;;;;;;1917034;73;21155;-82
2022/07/01 14:37:39;;;;;;;1.12;0.30;;;24.80;99.90;;;;;;1917497;75;21055;-81
2022/07/01 14:40:34;;;;;;;1.27;0.37;;;24.80;99.90;;;;;;1917601;75;21096;-77
2022/07/01 14:43:25;;;;;;;1.10;0.40;;;25.10;99.90;;;;;;1940265;73;21121;-78
2022/07/01 14:46:19;;;;;;;1.30;0.28;;;25.50;99.90;;;;;;1917571;75;21661;-79
2022/07/01 14:51:50;;;;;;;0.90;0.40;;;25.60;99.90;;;;;;1943055;72;22158;-78
2022/07/01 14:54:41;;;;;;;1.10;0.47;;;25.30;99.90;;;;;;1907868;75;21310;-79
2022/07/01 14:57:34;;;;;;;0.55;0.33;;;25.00;99.90;;;;;;1887986;73;21209;-79
2022/07/01 15:00:26;;;;;;;0.53;0.30;;;24.80;99.90;;;;;;1896948;75;21105;-79
2022/07/01 15:03:18;;;;;;;3.40;0.30;;;25.10;99.90;;;;;;1899464;73;21159;-79
2022/07/01 15:06:09;;;;;;;0.25;0.20;;;24.70;99.90;;;;;;1906240;75;21058;-79
2022/07/01 15:09:01;;;;;;;1.37;0.20;;;24.90;99.90;;;;;;1889555;75;21162;-79
2022/07/01 15:11:54;;;;;;;0.25;0.20;;;25.30;99.90;;;;;;1859340;76;21109;-79
2022/07/01 15:15:01;;;;;;;0.65;0.30;;;25.00;99.90;;;;;;1887165;75;21086;-79
2022/07/01 15:17:54;;;;;;;0.30;0.20;;;24.50;99.90;;;;;;1883853;75;21107;-79
2022/07/01 15:20:46;;;;;;;1.70;0.40;;;24.40;99.90;;;;;;1905947;75;21163;-79
2022/07/01 15:23:38;;;;;;;0.50;0.30;;;24.30;99.90;;;;;;1889036;75;21074;-79
2022/07/01 15:26:30;;;;;;;0.53;0.20;;;25.50;99.90;;;;;;1903457;75;21043;-79
2022/07/01 15:29:21;;;;;;;0.80;0.28;;;26.70;99.90;;;;;;1892248;75;21152;-79
2022/07/01 15:32:13;;;;;;;0.25;0.20;;;26.80;99.90;;;;;;1896505;73;21169;-79
2022/07/01 15:35:05;;;;;;;2.80;0.20;;;27.50;99.90;;;;;;1927652;73;21142;-79
2022/07/01 15:37:57;;;;;;;1.25;0.33;;;28.10;99.90;;;;;;1908887;75;21204;-79
2022/07/01 15:40:48;;;;;;;0.35;0.30;;;28.00;99.90;;;;;;1900397;75;21113;-82
2022/07/01 15:43:40;;;;;;;0.90;0.20;;;28.20;99.90;;;;;;1883089;76;21216;-80
2022/07/01 15:46:32;;;;;;;0.40;0.30;;;28.50;99.90;;;;;;1905697;75;21102;-79
2022/07/01 15:49:24;;;;;;;1.22;0.40;;;28.50;99.90;;;;;;1906041;75;21102;-79
2022/07/01 15:52:15;;;;;;;0.30;0.20;;;29.10;99.90;;;;;;1893224;75;21084;-79
2022/07/01 15:55:08;;;;;;;0.33;0.20;;;29.30;99.50;;;;;;1883799;75;21114;-79
2022/07/01 15:58:31;;;;;;;0.40;0.30;;;29.50;99.00;;;;;;1893560;73;21110;-79
2022/07/01 16:01:25;;;;;;;0.80;0.30;;;29.10;98.50;;;;;;1894949;75;21260;-80
2022/07/01 16:04:16;;;;;;;1.65;0.30;;;29.50;98.00;;;;;;1918236;74;21176;-78
2022/07/01 16:07:09;;;;;;;1.57;0.28;;;29.30;97.70;;;;;;1893115;75;21523;-79
2022/07/01 16:10:05;;;;;;;1.90;0.40;;;29.40;97.30;;;;;;1883009;75;21160;-80
2022/07/01 16:12:58;;;;;;;0.20;0.20;;;29.30;96.80;;;;;;1882965;75;21172;-80
2022/07/01 16:15:52;;;;;;;0.93;0.28;;;29.30;96.50;;;;;;1877007;75;21166;-80
2022/07/01 16:18:48;;;;;;;1.75;0.37;;;28.70;96.40;;;;;;1882642;75;21140;-80
2022/07/01 16:21:42;;;;;;;1.25;0.47;;;28.60;96.70;;;;;;1882893;75;21055;-80
2022/07/01 16:24:35;;;;;;;2.45;0.50;;;28.90;96.80;;;;;;1850316;77;21102;-79
2022/07/01 16:27:29;;;;;;;0.47;0.40;;;29.00;96.50;;;;;;1823615;76;21071;-79
2022/07/01 16:33:10;;;;;;;0.50;0.30;;;29.30;95.50;;;;;;1967513;72;22125;-83
2022/07/01 16:36:04;;;;;;;1.12;0.30;;;29.30;95.00;;;;;;1936681;73;21094;-83
2022/07/01 16:38:59;;;;;;;0.30;0.30;;;29.00;94.90;;;;;;1936069;73;21498;-83
2022/07/01 16:44:44;;;;;;;1.20;0.30;;;29.40;94.60;;;;;;1953010;72;22131;-82
2022/07/01 16:47:38;;;;;;;1.02;0.35;;;29.70;93.70;;;;;;1885147;75;21145;-82
2022/07/01 16:50:31;;;;;;;0.42;0.30;;;29.60;93.70;;;;;;1899023;75;21130;-82
2022/07/01 16:53:25;;;;;;;0.40;0.30;;;28.40;94.40;;;;;;1898089;75;21079;-82
2022/07/01 16:56:22;;;;;;;1.65;0.40;;;27.50;95.80;;;;;;1913482;73;21115;-82
2022/07/01 16:59:14;;;;;;;1.05;0.30;;;26.80;97.30;;;;;;1910327;75;21121;-82